createdAt,value
2022-08-22T00:00:47.891Z,94866.60
2022-08-22T00:02:45.720Z,94898.94
2022-08-22T00:02:56.359Z,94904.27
2022-08-22T00:02:57.439Z,94863.08
2022-08-22T00:03:06.552Z,94867.02
2022-08-22T00:03:43.643Z,94865.38
2022-08-22T00:06:21.649Z,94865.98
2022-08-22T00:09:33.348Z,94863.77
2022-08-22T00:12:21.862Z,94861.53
2022-08-22T00:15:01.648Z,94861.86
2022-08-22T00:17:34.638Z,94862.34
2022-08-22T00:20:28.235Z,94862.16
2022-08-22T00:23:07.544Z,94862.22
2022-08-22T00:25:52.943Z,94864.55
2022-08-22T00:28:33.711Z,94867.55
2022-08-22T00:31:07.095Z,94871.02
2022-08-22T00:33:42.951Z,94864.24
2022-08-22T00:36:43.178Z,94868.25
2022-08-22T00:39:38.770Z,94872.33
2022-08-22T00:42:44.146Z,94871.70
2022-08-22T00:45:33.417Z,94868.98
2022-08-22T00:48:22.513Z,94869.08
2022-08-22T00:51:14.342Z,94866.79
2022-08-22T00:54:19.150Z,94870.53
2022-08-22T00:57:03.409Z,94874.02
2022-08-22T00:59:39.360Z,94877.70
2022-08-22T01:02:36.436Z,94876.86
2022-08-22T01:05:18.417Z,94871.77
2022-08-22T01:08:19.153Z,94867.52
2022-08-22T01:11:10.467Z,94864.89
2022-08-22T01:14:09.162Z,94870.35
2022-08-22T01:16:55.258Z,94872.88
2022-08-22T01:19:37.452Z,94873.48
2022-08-22T01:22:25.837Z,94875.38
2022-08-22T01:25:30.694Z,94870.77
2022-08-22T01:28:03.472Z,94877.93
2022-08-22T01:31:01.126Z,94879.54
2022-08-22T01:34:06.277Z,94877.18
2022-08-22T01:37:17.634Z,94877.42
2022-08-22T01:40:09.313Z,94873.48
2022-08-22T01:43:14.408Z,94878.25
2022-08-22T01:45:59.578Z,94881.33
2022-08-22T01:48:47.762Z,94884.66
2022-08-22T01:51:42.727Z,94884.52
2022-08-22T01:54:23.906Z,94885.70
2022-08-22T01:56:51.058Z,94884.79
2022-08-22T01:59:42.321Z,94888.41
2022-08-22T02:02:21.641Z,94890.23
2022-08-22T02:05:19.075Z,94893.61
2022-08-22T02:07:54.341Z,94887.69
2022-08-22T02:10:42.195Z,94888.81
2022-08-22T02:13:12.684Z,94884.79
2022-08-22T02:15:39.536Z,94885.22
2022-08-22T02:18:06.376Z,94882.27
2022-08-22T02:20:52.162Z,94882.27
2022-08-22T02:23:50.028Z,94880.76
2022-08-22T02:26:39.305Z,94880.76
2022-08-22T02:29:13.646Z,94879.81
2022-08-22T02:31:53.298Z,94876.86
2022-08-22T02:34:30.984Z,94876.30
2022-08-22T02:37:11.838Z,94877.49
2022-08-22T02:40:14.383Z,94882.34
2022-08-22T02:42:49.976Z,94886.98
2022-08-22T02:45:25.833Z,94888.64
2022-08-22T02:48:37.836Z,94889.31
2022-08-22T02:51:31.476Z,94896.92
2022-08-22T02:54:31.045Z,94899.39
2022-08-22T02:57:14.531Z,94903.02
2022-08-22T03:00:31.334Z,94897.04
2022-08-22T03:03:05.045Z,94896.09
2022-08-22T03:05:35.270Z,94893.80
2022-08-22T03:08:18.459Z,94892.57
2022-08-22T03:11:01.659Z,94895.11
2022-08-22T03:13:54.146Z,94899.25
2022-08-22T03:16:58.337Z,94905.52
2022-08-22T03:19:48.961Z,94909.89
2022-08-22T03:22:34.414Z,94915.67
2022-08-22T03:25:17.434Z,94925.27
2022-08-22T03:27:53.630Z,94930.59
2022-08-22T03:30:40.356Z,94927.91
2022-08-22T03:33:25.181Z,94921.27
2022-08-22T03:36:03.932Z,94915.05
2022-08-22T03:38:33.658Z,94902.73
2022-08-22T03:41:38.679Z,94898.58
2022-08-22T03:44:45.738Z,94901.52
2022-08-22T03:47:29.479Z,94905.95
2022-08-22T03:50:18.257Z,94913.17
2022-08-22T03:53:06.705Z,94926.06
2022-08-22T03:56:16.456Z,94924.31
2022-08-22T03:59:10.246Z,94912.19
2022-08-22T04:01:55.912Z,94905.10
2022-08-22T04:04:53.197Z,94904.95
2022-08-22T04:08:14.484Z,94912.77
2022-08-22T04:11:18.917Z,94921.48
2022-08-22T04:13:50.266Z,94925.71
2022-08-22T04:16:26.018Z,94926.45
2022-08-22T04:19:05.455Z,94923.30
2022-08-22T04:21:38.354Z,94914.64
2022-08-22T04:24:20.343Z,94910.60
2022-08-22T04:27:04.002Z,94907.54
2022-08-22T04:29:49.770Z,94910.25
2022-08-22T04:32:31.256Z,94906.20
2022-08-22T04:35:08.459Z,94910.55
2022-08-22T04:37:53.315Z,94916.15
2022-08-22T04:40:31.135Z,94917.61
2022-08-22T04:43:10.588Z,94915.27
2022-08-22T04:45:47.536Z,94914.30
2022-08-22T04:48:25.158Z,94907.30
2022-08-22T04:51:00.573Z,94907.70
2022-08-22T04:53:46.368Z,94907.06
2022-08-22T04:56:35.953Z,94910.74
2022-08-22T04:59:12.506Z,94908.85
2022-08-22T05:01:47.232Z,94909.30
2022-08-22T05:04:26.858Z,94909.45
2022-08-22T05:07:13.197Z,94916.29
2022-08-22T05:09:47.014Z,94918.81
2022-08-22T05:12:30.235Z,94917.02
2022-08-22T05:15:07.270Z,94918.91
2022-08-22T05:17:40.156Z,94922.14
2022-08-22T05:20:12.065Z,94927.79
2022-08-22T05:22:46.610Z,94930.78
2022-08-22T05:25:21.527Z,94934.63
2022-08-22T05:27:53.334Z,94932.67
2022-08-22T05:30:27.344Z,94934.80
2022-08-22T05:33:03.351Z,94943.70
2022-08-22T05:35:43.912Z,94945.41
2022-08-22T05:38:16.503Z,94938.98
2022-08-22T05:40:51.169Z,94939.95
2022-08-22T05:43:20.477Z,94937.52
2022-08-22T05:45:48.495Z,94940.22
2022-08-22T05:48:25.080Z,94942.55
2022-08-22T05:50:58.009Z,94941.98
2022-08-22T05:53:30.233Z,94942.86
2022-08-22T05:55:59.948Z,94938.81
2022-08-22T05:58:38.773Z,94937.63
2022-08-22T06:01:19.975Z,94943.98
2022-08-22T06:04:06.702Z,94944.43
2022-08-22T06:06:46.826Z,94946.20
2022-08-22T06:09:25.678Z,94950.10
2022-08-22T06:12:15.079Z,94951.02
2022-08-22T06:15:20.743Z,94950.73
2022-08-22T06:17:57.827Z,94952.47
2022-08-22T06:20:38.866Z,94958.02
2022-08-22T06:23:07.840Z,94960.70
2022-08-22T06:25:39.218Z,94957.30
2022-08-22T06:28:13.562Z,94955.38
2022-08-22T06:30:45.163Z,94955.59
2022-08-22T06:33:20.467Z,94948.34
2022-08-22T06:36:09.470Z,94948.59
2022-08-22T06:39:01.092Z,94950.58
2022-08-22T06:41:33.163Z,94951.52
2022-08-22T06:44:03.694Z,94947.13
2022-08-22T06:46:35.238Z,94947.39
2022-08-22T06:49:04.554Z,94951.30
2022-08-22T06:51:34.611Z,94951.96
2022-08-22T06:54:03.776Z,94954.73
2022-08-22T06:56:38.457Z,94954.45
2022-08-22T06:59:11.318Z,94955.98
2022-08-22T07:02:17.172Z,94952.94
2022-08-22T07:04:46.861Z,94949.44
2022-08-22T07:07:19.453Z,94948.79
2022-08-22T07:09:54.752Z,94948.85
2022-08-22T07:12:28.319Z,94946.98
2022-08-22T07:15:00.256Z,94947.95
2022-08-22T07:17:32.415Z,94951.11
2022-08-22T07:20:23.148Z,94951.36
2022-08-22T07:23:03.985Z,94949.89
2022-08-22T07:25:33.705Z,94948.22
2022-08-22T07:28:16.038Z,94951.80
2022-08-22T07:31:18.086Z,94954.14
2022-08-22T07:33:54.969Z,94954.92
2022-08-22T07:37:03.211Z,94961.05
2022-08-22T07:39:41.861Z,94966.06
2022-08-22T07:42:10.889Z,94971.19
2022-08-22T07:45:00.956Z,94972.05
2022-08-22T07:47:49.210Z,94970.35
2022-08-22T07:50:23.299Z,94971.08
2022-08-22T07:52:52.055Z,94977.17
2022-08-22T07:55:22.564Z,94979.55
2022-08-22T07:58:03.876Z,94977.52
2022-08-22T08:00:32.303Z,94981.85
2022-08-22T08:03:05.345Z,94978.08
2022-08-22T08:05:36.050Z,94977.80
2022-08-22T08:08:33.931Z,94983.44
2022-08-22T08:11:02.940Z,94984.73
2022-08-22T08:13:36.198Z,94982.27
2022-08-22T08:16:08.940Z,94978.30
2022-08-22T08:18:38.200Z,94976.40
2022-08-22T08:21:10.253Z,94972.43
2022-08-22T08:23:45.565Z,94973.29
2022-08-22T08:26:18.756Z,94969.58
2022-08-22T08:28:49.370Z,94967.61
2022-08-22T08:31:35.466Z,94969.91
2022-08-22T08:34:07.517Z,94966.64
2022-08-22T08:36:39.857Z,94965.56
2022-08-22T08:39:13.915Z,94964.52
2022-08-22T08:41:59.384Z,94965.23
2022-08-22T08:45:00.855Z,94966.20
2022-08-22T08:47:36.589Z,94971.39
2022-08-22T08:50:13.178Z,94972.52
2022-08-22T08:53:09.105Z,94972.34
2022-08-22T08:55:56.009Z,94974.10
2022-08-22T08:58:48.807Z,94974.02
2022-08-22T09:01:27.580Z,94974.69
2022-08-22T09:04:15.039Z,94970.86
2022-08-22T09:10:18.940Z,94965.25
2022-08-22T09:12:56.017Z,94970.10
2022-08-22T09:15:37.461Z,94971.50
2022-08-22T09:18:06.157Z,94972.80
2022-08-22T09:21:06.030Z,94967.52
2022-08-22T09:24:13.025Z,94966.23
2022-08-22T09:27:09.629Z,94961.95
2022-08-22T09:29:59.823Z,94964.33
2022-08-22T09:32:35.905Z,94957.75
2022-08-22T09:35:28.472Z,94961.59
2022-08-22T09:37:58.997Z,94959.39
2022-08-22T09:40:50.300Z,94956.14
2022-08-22T09:43:33.781Z,94958.70
2022-08-22T09:46:31.389Z,94956.59
2022-08-22T09:49:19.384Z,94958.79
2022-08-22T09:51:55.106Z,94961.23
2022-08-22T09:54:34.536Z,94966.33
2022-08-22T09:57:34.984Z,94969.14
2022-08-22T10:00:04.578Z,94967.34
2022-08-22T10:02:43.858Z,94969.48
2022-08-22T10:05:40.961Z,94972.83
2022-08-22T10:08:14.370Z,94967.13
2022-08-22T10:11:06.606Z,94969.12
2022-08-22T10:13:37.060Z,94963.84
2022-08-22T10:16:36.895Z,94957.40
2022-08-22T10:19:27.793Z,94956.89
2022-08-22T10:22:19.944Z,94955.17
2022-08-22T10:25:01.601Z,94956.58
2022-08-22T10:27:40.418Z,94959.67
2022-08-22T10:30:21.600Z,94955.90
2022-08-22T10:33:03.847Z,94953.76
2022-08-22T10:35:50.708Z,94951.36
2022-08-22T10:38:31.816Z,94949.80
2022-08-22T10:41:25.273Z,94938.09
2022-08-22T10:44:04.599Z,94936.21
2022-08-22T10:47:19.140Z,94933.16
2022-08-22T10:49:58.528Z,94925.23
2022-08-22T10:52:47.597Z,94922.60
2022-08-22T10:55:27.103Z,94917.66
2022-08-22T10:58:26.557Z,94921.90
2022-08-22T11:00:58.484Z,94912.92
2022-08-22T11:03:44.709Z,94913.13
2022-08-22T11:06:35.024Z,94909.71
2022-08-22T11:09:20.156Z,94911.73
2022-08-22T11:12:02.875Z,94905.96
2022-08-22T11:15:13.854Z,94905.79
2022-08-22T11:18:20.026Z,94907.66
2022-08-22T11:21:21.068Z,94913.47
2022-08-22T11:24:53.965Z,94908.64
2022-08-22T11:27:38.120Z,94910.09
2022-08-22T11:30:22.879Z,94908.63
2022-08-22T11:33:02.094Z,94906.53
2022-08-22T11:35:58.130Z,94905.39
2022-08-22T11:39:02.264Z,94899.43
2022-08-22T11:41:41.188Z,94898.31
2022-08-22T11:44:12.764Z,94900.85
2022-08-22T11:46:44.939Z,94895.61
2022-08-22T11:49:54.172Z,94893.59
2022-08-22T11:52:23.967Z,94886.61
2022-08-22T11:55:17.117Z,94881.66
2022-08-22T11:57:49.917Z,94876.21
2022-08-22T12:00:26.810Z,94880.05
2022-08-22T12:02:59.882Z,94880.14
2022-08-22T12:05:41.270Z,94877.72
2022-08-22T12:08:31.156Z,94877.73
2022-08-22T12:11:05.578Z,94872.97
2022-08-22T12:14:03.974Z,94871.08
2022-08-22T12:16:45.267Z,94868.14
2022-08-22T12:20:12.852Z,94868.31
2022-08-22T12:23:05.428Z,94859.35
2022-08-22T12:25:48.395Z,94851.80
2022-08-22T12:28:43.228Z,94851.75
2022-08-22T12:31:36.971Z,94845.56
2022-08-22T12:34:07.700Z,94844.52
2022-08-22T12:36:42.429Z,94849.78
2022-08-22T12:39:34.466Z,94844.42
2022-08-22T12:42:13.577Z,94844.98
2022-08-22T12:44:59.909Z,94841.66
2022-08-22T12:47:44.902Z,94845.67
2022-08-22T12:50:36.931Z,94846.61
2022-08-22T12:53:20.359Z,94847.14
2022-08-22T12:56:06.227Z,94844.20
2022-08-22T12:59:04.139Z,94841.27
2022-08-22T13:01:43.117Z,94844.56
2022-08-22T13:04:32.488Z,94847.09
2022-08-22T13:07:09.806Z,94853.21
2022-08-22T13:09:40.649Z,94851.22
2022-08-22T13:12:44.127Z,94854.93
2022-08-22T13:15:20.498Z,94858.83
2022-08-22T13:17:53.060Z,94857.64
2022-08-22T13:20:32.346Z,94861.35
2022-08-22T13:23:07.389Z,94862.23
2022-08-22T13:26:32.217Z,94865.61
2022-08-22T13:29:25.581Z,94861.66
2022-08-22T13:31:59.779Z,94865.65
2022-08-22T13:34:57.519Z,94866.77
2022-08-22T13:37:35.238Z,94869.86
2022-08-22T13:40:09.554Z,94868.21
2022-08-22T13:42:47.778Z,94876.05
2022-08-22T13:45:22.651Z,94880.89
2022-08-22T13:48:00.070Z,94876.34
2022-08-22T13:50:52.924Z,94871.43
2022-08-22T13:53:37.697Z,94877.83
2022-08-22T13:56:28.434Z,94877.35
2022-08-22T13:59:01.359Z,94880.47
2022-08-22T14:01:31.548Z,94877.32
2022-08-22T14:04:28.313Z,94877.86
2022-08-22T14:07:23.782Z,94874.70
2022-08-22T14:09:56.296Z,94881.23
2022-08-22T14:12:27.903Z,94884.90
2022-08-22T14:15:04.585Z,94884.61
2022-08-22T14:17:42.863Z,94883.88
2022-08-22T14:20:32.156Z,94880.48
2022-08-22T14:23:12.536Z,94877.53
2022-08-22T14:25:42.986Z,94873.80
2022-08-22T14:28:31.837Z,94873.26
2022-08-22T14:31:13.683Z,94876.82
2022-08-22T14:33:54.176Z,94873.36
2022-08-22T14:36:29.058Z,94866.45
2022-08-22T14:39:06.099Z,94869.52
2022-08-22T14:42:18.112Z,94868.35
2022-08-22T14:44:56.724Z,94865.21
2022-08-22T14:47:55.510Z,94874.19
2022-08-22T14:50:50.346Z,94872.79
2022-08-22T14:53:19.958Z,94876.48
2022-08-22T14:56:11.085Z,94884.31
2022-08-22T14:58:58.063Z,94893.42
2022-08-22T15:01:29.975Z,94904.03
2022-08-22T15:04:10.243Z,94908.80
2022-08-22T15:06:47.999Z,94909.27
2022-08-22T15:09:32.443Z,94913.90
2022-08-22T15:12:01.614Z,94926.53
2022-08-22T15:14:53.057Z,94936.38
2022-08-22T15:17:35.182Z,94950.13
2022-08-22T15:20:27.670Z,94963.98
2022-08-22T15:23:03.548Z,94971.64
2022-08-22T15:25:47.152Z,94989.88
2022-08-22T15:28:20.221Z,94996.08
2022-08-22T15:31:03.762Z,94991.91
2022-08-22T15:33:45.411Z,95007.02
2022-08-22T15:36:23.998Z,95023.91
2022-08-22T15:39:16.177Z,95018.98
2022-08-22T15:41:46.333Z,95004.83
2022-08-22T15:44:32.981Z,95011.55
2022-08-22T15:47:28.450Z,95009.56
2022-08-22T15:50:15.334Z,94986.33
2022-08-22T15:53:14.541Z,94973.12
2022-08-22T15:56:16.307Z,94988.41
2022-08-22T15:58:49.597Z,95014.41
2022-08-22T16:01:22.393Z,95031.17
2022-08-22T16:03:59.589Z,95027.88
2022-08-22T16:06:49.368Z,95024.30
2022-08-22T16:09:42.738Z,95026.23
2022-08-22T16:12:28.104Z,95035.07
2022-08-22T16:14:55.685Z,95041.60
2022-08-22T16:17:28.321Z,95038.91
2022-08-22T16:20:07.375Z,95026.86
2022-08-22T16:22:56.139Z,95018.77
2022-08-22T16:25:47.146Z,95013.83
2022-08-22T16:28:54.236Z,95019.77
2022-08-22T16:31:27.156Z,95028.87
2022-08-22T16:34:20.001Z,95047.45
2022-08-22T16:37:03.292Z,95057.91
2022-08-22T16:39:42.609Z,95071.73
2022-08-22T16:42:12.177Z,95076.10
2022-08-22T16:44:44.997Z,95074.13
2022-08-22T16:47:11.974Z,95075.60
2022-08-22T16:49:51.223Z,95073.56
2022-08-22T16:52:21.709Z,95075.41
2022-08-22T16:55:05.493Z,95076.23
2022-08-22T16:57:54.479Z,95077.52
2022-08-22T17:00:39.550Z,95084.41
2022-08-22T17:03:32.691Z,95082.16
2022-08-22T17:06:39.475Z,95089.91
2022-08-22T17:09:39.802Z,95095.12
2022-08-22T17:12:26.008Z,95091.11
2022-08-22T17:15:16.296Z,95093.09
2022-08-22T17:18:14.801Z,95101.81
2022-08-22T17:21:17.054Z,95108.67
2022-08-22T17:23:49.733Z,95095.06
2022-08-22T17:26:26.831Z,95087.15
2022-08-22T17:29:16.744Z,95088.52
2022-08-22T17:32:11.533Z,95087.55
2022-08-22T17:34:54.426Z,95086.64
2022-08-22T17:38:01.245Z,95092.16
2022-08-22T17:40:36.510Z,95100.23
2022-08-22T17:43:15.267Z,95103.57
2022-08-22T17:46:02.708Z,95102.78
2022-08-22T17:48:53.264Z,95109.63
2022-08-22T17:51:34.844Z,95110.59
2022-08-22T17:54:24.886Z,95113.70
2022-08-22T17:57:05.971Z,95116.51
2022-08-22T17:59:45.288Z,95114.49
2022-08-22T18:02:38.775Z,95121.69
2022-08-22T18:05:33.779Z,95128.36
2022-08-22T18:08:36.966Z,95134.80
2022-08-22T18:11:03.308Z,95136.15
2022-08-22T18:13:54.145Z,95134.82
2022-08-22T18:16:29.365Z,95137.00
2022-08-22T18:19:17.943Z,95132.52
2022-08-22T18:21:56.761Z,95131.89
2022-08-22T18:24:42.580Z,95139.91
2022-08-22T18:27:51.682Z,95145.61
2022-08-22T18:30:23.524Z,95151.42
2022-08-22T18:33:17.986Z,95149.30
2022-08-22T18:36:14.261Z,95143.88
2022-08-22T18:38:54.022Z,95139.30
2022-08-22T18:41:52.075Z,95141.92
2022-08-22T18:44:24.343Z,95149.86
2022-08-22T18:46:54.096Z,95160.21
2022-08-22T18:49:23.738Z,95160.23
2022-08-22T18:52:08.946Z,95161.02
2022-08-22T18:54:55.761Z,95160.84
2022-08-22T18:57:45.850Z,95165.96
2022-08-22T19:00:18.576Z,95170.04
2022-08-22T19:03:23.698Z,95169.33
2022-08-22T19:06:23.637Z,95174.23
2022-08-22T19:09:12.665Z,95175.21
2022-08-22T19:11:51.282Z,95173.90
2022-08-22T19:14:28.981Z,95174.48
2022-08-22T19:17:15.921Z,95166.53
2022-08-22T19:20:16.943Z,95167.23
2022-08-22T19:22:44.833Z,95172.44
2022-08-22T19:25:25.916Z,95172.04
2022-08-22T19:28:11.094Z,95167.36
2022-08-22T19:30:51.456Z,95167.02
2022-08-22T19:33:25.751Z,95169.89
2022-08-22T19:36:07.676Z,95169.06
2022-08-22T19:39:09.113Z,95168.84
2022-08-22T19:41:36.494Z,95172.66
2022-08-22T19:44:03.867Z,95171.52
2022-08-22T19:46:39.537Z,95171.69
2022-08-22T19:49:26.893Z,95175.20
2022-08-22T19:52:39.409Z,95177.23
2022-08-22T19:55:28.157Z,95173.85
2022-08-22T19:58:07.946Z,95162.21
2022-08-22T20:00:53.352Z,95159.38
2022-08-22T20:03:57.413Z,95162.86
2022-08-22T20:06:45.290Z,95165.20
2022-08-22T20:09:15.606Z,95165.55
2022-08-22T20:12:15.522Z,95172.19
2022-08-22T20:14:45.829Z,95181.34
2022-08-22T20:17:25.063Z,95190.63
2022-08-22T20:20:17.810Z,95194.21
2022-08-22T20:22:51.921Z,95202.46
2022-08-22T20:25:43.006Z,95202.29
2022-08-22T20:28:38.380Z,95200.60
2022-08-22T20:31:20.492Z,95203.26
2022-08-22T20:33:55.031Z,95202.02
2022-08-22T20:36:28.673Z,95200.86
2022-08-22T20:39:24.100Z,95199.16
2022-08-22T20:41:59.465Z,95203.50
2022-08-22T20:44:40.163Z,95207.06
2022-08-22T20:47:13.548Z,95210.29
2022-08-22T20:49:51.042Z,95204.02
2022-08-22T20:52:29.977Z,95197.63
2022-08-22T20:55:11.997Z,95197.73
2022-08-22T20:57:52.096Z,95196.83
2022-08-22T21:00:27.230Z,95197.21
2022-08-22T21:03:08.822Z,95200.30
2022-08-22T21:05:42.490Z,95202.83
2022-08-22T21:08:15.332Z,95197.67
2022-08-22T21:11:01.101Z,95199.63
2022-08-22T21:13:37.281Z,95199.91
2022-08-22T21:16:30.713Z,95201.11
2022-08-22T21:19:02.785Z,95203.18
2022-08-22T21:21:32.789Z,95200.20
2022-08-22T21:24:06.647Z,95195.42
2022-08-22T21:26:38.079Z,95194.29
2022-08-22T21:29:11.799Z,95190.92
2022-08-22T21:31:59.136Z,95194.15
2022-08-22T21:34:43.649Z,95189.11
2022-08-22T21:37:39.300Z,95186.48
2022-08-22T21:40:19.083Z,95183.30
2022-08-22T21:43:05.644Z,95189.45
2022-08-22T21:45:38.575Z,95191.02
2022-08-22T21:48:38.444Z,95190.31
2022-08-22T21:51:24.793Z,95184.36
2022-08-22T21:54:30.695Z,95175.46
2022-08-22T21:57:09.574Z,95177.39
2022-08-22T21:59:51.650Z,95183.15
2022-08-22T22:02:35.286Z,95188.27
2022-08-22T22:05:24.183Z,95181.87
2022-08-22T22:07:51.191Z,95176.75
2022-08-22T22:10:20.480Z,95174.41
2022-08-22T22:12:48.986Z,95170.47
2022-08-22T22:15:21.129Z,95167.97
2022-08-22T22:17:48.115Z,95173.52
2022-08-22T22:20:16.705Z,95176.21
2022-08-22T22:22:46.251Z,95170.26
2022-08-22T22:25:41.323Z,95164.41
2022-08-22T22:28:07.112Z,95164.84
2022-08-22T22:30:35.000Z,95162.67
2022-08-22T22:33:01.929Z,95163.15
2022-08-22T22:35:29.831Z,95170.27
2022-08-22T22:37:57.414Z,95174.80
2022-08-22T22:40:24.897Z,95170.42
2022-08-22T22:42:51.790Z,95168.36
2022-08-22T22:45:18.714Z,95161.19
2022-08-22T22:47:45.638Z,95153.90
2022-08-22T22:50:12.913Z,95147.80
2022-08-22T22:52:40.826Z,95148.02
2022-08-22T22:55:09.185Z,95146.70
2022-08-22T22:57:42.498Z,95152.86
2022-08-22T23:00:11.047Z,95156.68
2022-08-22T23:02:39.018Z,95155.77
2022-08-22T23:05:08.016Z,95155.37
2022-08-22T23:07:35.162Z,95159.88
2022-08-22T23:10:06.208Z,95160.29
2022-08-22T23:12:36.458Z,95170.13
2022-08-22T23:15:05.525Z,95173.48
2022-08-22T23:17:33.702Z,95175.89
2022-08-22T23:20:01.067Z,95183.20
2022-08-22T23:22:29.853Z,95182.60
2022-08-22T23:24:57.023Z,95180.20
2022-08-22T23:27:24.050Z,95179.19
2022-08-22T23:29:51.305Z,95181.36
2022-08-22T23:32:18.459Z,95177.59
2022-08-22T23:34:48.152Z,95174.20
2022-08-22T23:37:19.540Z,95172.62
2022-08-22T23:39:47.543Z,95173.13
2022-08-22T23:42:16.422Z,95178.67
2022-08-22T23:44:45.261Z,95178.35
2022-08-22T23:47:14.064Z,95172.73
2022-08-22T23:49:42.777Z,95169.73
2022-08-22T23:52:12.260Z,95175.88
2022-08-22T23:54:39.129Z,95176.20
2022-08-22T23:57:11.910Z,95173.32
2022-08-22T23:59:44.832Z,95175.45
